createdAt,value
2022-07-30T00:02:06.375Z,16.19
2022-07-30T00:04:33.528Z,16.12
2022-07-30T00:07:01.089Z,16.08
2022-07-30T00:09:28.483Z,16.05
2022-07-30T00:11:55.574Z,16.01
2022-07-30T00:14:22.672Z,15.96
2022-07-30T00:16:49.868Z,15.93
2022-07-30T00:19:17.037Z,15.90
2022-07-30T00:21:45.643Z,15.88
2022-07-30T00:24:12.859Z,15.83
2022-07-30T00:26:39.909Z,15.79
2022-07-30T00:29:07.260Z,15.77
2022-07-30T00:31:34.369Z,15.72
2022-07-30T00:34:01.457Z,15.67
2022-07-30T00:36:28.607Z,15.64
2022-07-30T00:38:55.933Z,15.62
2022-07-30T00:41:23.638Z,15.58
2022-07-30T00:43:51.078Z,15.55
2022-07-30T00:46:18.317Z,15.51
2022-07-30T00:48:46.358Z,15.50
2022-07-30T00:51:13.574Z,15.46
2022-07-30T00:53:40.814Z,15.42
2022-07-30T00:56:07.984Z,15.40
2022-07-30T00:58:35.231Z,15.36
2022-07-30T01:01:02.388Z,15.34
2022-07-30T01:03:29.472Z,15.31
2022-07-30T01:05:56.780Z,15.30
2022-07-30T01:08:23.744Z,15.24
2022-07-30T01:10:50.955Z,15.22
2022-07-30T01:13:18.287Z,15.19
2022-07-30T01:15:45.281Z,15.17
2022-07-30T01:18:13.771Z,15.15
2022-07-30T01:20:52.308Z,15.11
2022-07-30T01:23:38.313Z,15.08
2022-07-30T01:26:11.003Z,15.06
2022-07-30T01:28:41.777Z,15.02
2022-07-30T01:31:11.128Z,15.01
2022-07-30T01:33:42.444Z,14.99
2022-07-30T01:36:14.393Z,14.95
2022-07-30T01:38:46.503Z,14.91
2022-07-30T01:41:15.507Z,14.86
2022-07-30T01:43:45.465Z,14.86
2022-07-30T01:46:15.085Z,14.84
2022-07-30T01:48:44.316Z,14.81
2022-07-30T01:51:13.397Z,14.78
2022-07-30T01:53:42.985Z,14.75
2022-07-30T01:56:12.876Z,14.73
2022-07-30T01:58:46.817Z,14.70
2022-07-30T02:01:14.132Z,14.66
2022-07-30T02:03:41.772Z,14.61
2022-07-30T02:06:22.002Z,14.62
2022-07-30T02:08:55.322Z,14.58
2022-07-30T02:11:41.474Z,14.55
2022-07-30T02:14:25.170Z,14.52
2022-07-30T02:16:56.583Z,14.50
2022-07-30T02:19:33.125Z,14.47
2022-07-30T02:22:08.620Z,14.43
2022-07-30T02:24:37.927Z,14.40
2022-07-30T02:27:20.098Z,14.36
2022-07-30T02:29:48.901Z,14.33
2022-07-30T02:32:20.441Z,14.31
2022-07-30T02:34:52.001Z,14.27
2022-07-30T02:37:41.625Z,14.24
2022-07-30T02:40:14.931Z,14.21
2022-07-30T02:42:43.794Z,14.19
2022-07-30T02:45:12.685Z,14.17
2022-07-30T02:47:41.057Z,14.14
2022-07-30T02:50:10.828Z,14.09
2022-07-30T02:52:40.484Z,14.08
2022-07-30T02:55:09.757Z,14.06
2022-07-30T02:57:43.251Z,14.02
2022-07-30T03:00:12.027Z,14.01
2022-07-30T03:02:40.701Z,13.98
2022-07-30T03:05:14.022Z,13.96
2022-07-30T03:07:42.242Z,13.92
2022-07-30T03:10:11.283Z,13.90
2022-07-30T03:12:40.682Z,13.87
2022-07-30T03:15:08.352Z,13.85
2022-07-30T03:17:40.435Z,13.80
2022-07-30T03:20:17.681Z,13.80
2022-07-30T03:22:48.238Z,13.75
2022-07-30T03:25:19.703Z,13.72
2022-07-30T03:27:47.475Z,13.66
2022-07-30T03:30:14.693Z,13.68
2022-07-30T03:32:42.884Z,13.66
2022-07-30T03:35:17.223Z,13.59
2022-07-30T03:37:46.183Z,13.59
2022-07-30T03:40:14.356Z,13.56
2022-07-30T03:42:42.071Z,13.53
2022-07-30T03:45:09.719Z,13.51
2022-07-30T03:47:39.529Z,13.48
2022-07-30T03:50:06.842Z,13.44
2022-07-30T03:52:40.842Z,13.42
2022-07-30T03:55:11.300Z,13.38
2022-07-30T03:57:38.994Z,13.40
2022-07-30T04:00:08.677Z,13.39
2022-07-30T04:02:45.849Z,13.39
2022-07-30T04:05:13.899Z,13.37
2022-07-30T04:07:44.822Z,13.35
2022-07-30T04:10:12.988Z,13.35
2022-07-30T04:12:40.016Z,13.33
2022-07-30T04:16:36.999Z,13.32
2022-07-30T04:18:01.440Z,13.31
2022-07-30T04:20:33.081Z,13.32
2022-07-30T04:23:02.119Z,13.30
2022-07-30T04:25:30.611Z,13.31
2022-07-30T04:28:03.340Z,13.31
2022-07-30T04:30:31.363Z,13.30
2022-07-30T04:32:58.337Z,13.30
2022-07-30T04:35:51.256Z,13.31
2022-07-30T04:38:17.487Z,13.31
2022-07-30T04:40:44.476Z,13.32
2022-07-30T04:43:11.515Z,13.34
2022-07-30T04:45:40.361Z,13.35
2022-07-30T04:48:07.803Z,13.37
2022-07-30T04:50:38.844Z,13.35
2022-07-30T04:53:06.034Z,13.35
2022-07-30T04:55:35.751Z,13.38
2022-07-30T04:58:03.418Z,13.41
2022-07-30T05:00:32.814Z,13.42
2022-07-30T05:03:02.448Z,13.42
2022-07-30T05:05:32.441Z,13.44
2022-07-30T05:08:01.284Z,13.44
2022-07-30T05:10:28.324Z,13.43
2022-07-30T05:12:55.322Z,13.46
2022-07-30T05:15:23.272Z,13.46
2022-07-30T05:18:03.842Z,13.51
2022-07-30T05:20:30.702Z,13.50
2022-07-30T05:22:58.289Z,13.52
2022-07-30T05:25:25.182Z,13.55
2022-07-30T05:27:52.687Z,13.59
2022-07-30T05:30:19.793Z,13.59
2022-07-30T05:32:54.938Z,13.64
2022-07-30T05:35:23.367Z,13.65
2022-07-30T05:37:50.362Z,13.66
2022-07-30T05:40:17.366Z,13.71
2022-07-30T05:42:44.322Z,13.74
2022-07-30T05:45:11.350Z,13.74
2022-07-30T05:47:38.267Z,13.77
2022-07-30T05:50:05.713Z,13.81
2022-07-30T05:52:33.669Z,13.84
2022-07-30T05:55:00.660Z,13.83
2022-07-30T05:57:27.518Z,13.86
2022-07-30T05:59:54.546Z,13.89
2022-07-30T06:02:24.512Z,13.92
2022-07-30T06:04:52.048Z,13.93
2022-07-30T06:07:19.124Z,13.94
2022-07-30T06:09:46.169Z,13.96
2022-07-30T06:12:13.098Z,14.00
2022-07-30T06:14:40.214Z,14.02
2022-07-30T06:17:07.214Z,14.06
2022-07-30T06:19:34.206Z,14.08
2022-07-30T06:22:05.993Z,14.11
2022-07-30T06:24:34.331Z,14.06
2022-07-30T06:27:01.927Z,14.13
2022-07-30T06:29:29.141Z,14.17
2022-07-30T06:31:56.116Z,14.18
2022-07-30T06:34:23.310Z,14.22
2022-07-30T06:36:50.447Z,14.23
2022-07-30T06:39:56.861Z,14.27
2022-07-30T06:42:04.791Z,14.32
2022-07-30T06:44:31.828Z,14.34
2022-07-30T06:47:01.854Z,14.30
2022-07-30T06:49:33.116Z,14.35
2022-07-30T06:52:00.460Z,14.41
2022-07-30T06:54:27.557Z,14.42
2022-07-30T06:56:54.745Z,14.47
2022-07-30T06:59:21.781Z,14.50
2022-07-30T07:01:49.452Z,14.51
2022-07-30T07:04:16.738Z,14.56
2022-07-30T07:06:43.696Z,14.55
2022-07-30T07:09:10.648Z,14.57
2022-07-30T07:11:37.650Z,14.62
2022-07-30T07:14:04.991Z,14.65
2022-07-30T07:16:32.157Z,14.68
2022-07-30T07:18:59.091Z,14.72
2022-07-30T07:21:26.017Z,14.79
2022-07-30T07:23:52.995Z,14.86
2022-07-30T07:26:19.870Z,14.93
2022-07-30T07:28:46.858Z,15.00
2022-07-30T07:32:02.768Z,15.07
2022-07-30T07:34:00.789Z,15.13
2022-07-30T07:36:28.493Z,15.20
2022-07-30T07:38:55.512Z,15.30
2022-07-30T07:41:22.388Z,15.37
2022-07-30T07:43:49.319Z,15.47
2022-07-30T07:46:33.911Z,15.53
2022-07-30T07:49:01.909Z,15.59
2022-07-30T07:51:48.223Z,15.64
2022-07-30T07:54:22.299Z,15.73
2022-07-30T07:56:52.702Z,15.79
2022-07-30T07:59:20.129Z,15.86
2022-07-30T08:01:49.856Z,15.91
2022-07-30T08:04:17.854Z,16.06
2022-07-30T08:06:45.015Z,16.13
2022-07-30T08:09:12.082Z,16.25
2022-07-30T08:11:39.348Z,16.31
2022-07-30T08:14:06.314Z,16.38
2022-07-30T08:16:34.510Z,16.49
2022-07-30T08:19:01.768Z,16.56
2022-07-30T08:21:28.657Z,16.63
2022-07-30T08:23:55.678Z,16.72
2022-07-30T08:26:22.486Z,16.77
2022-07-30T08:28:49.719Z,16.90
2022-07-30T08:31:19.819Z,16.99
2022-07-30T08:33:46.789Z,17.12
2022-07-30T08:36:13.743Z,17.20
2022-07-30T08:38:40.770Z,17.30
2022-07-30T08:41:11.489Z,17.40
2022-07-30T08:43:39.613Z,17.52
2022-07-30T08:46:10.353Z,17.59
2022-07-30T08:48:38.067Z,17.72
2022-07-30T08:51:05.420Z,17.78
2022-07-30T08:53:34.100Z,17.90
2022-07-30T08:56:01.859Z,18.00
2022-07-30T08:58:31.859Z,18.07
2022-07-30T09:00:58.779Z,18.15
2022-07-30T09:03:25.860Z,18.25
2022-07-30T09:05:52.874Z,18.34
2022-07-30T09:08:20.030Z,18.41
2022-07-30T09:10:50.656Z,18.51
2022-07-30T09:13:41.784Z,18.58
2022-07-30T09:16:26.136Z,18.64
2022-07-30T09:18:54.305Z,18.70
2022-07-30T09:21:25.242Z,18.78
2022-07-30T09:24:03.824Z,18.86
2022-07-30T09:26:33.266Z,18.96
2022-07-30T09:29:20.274Z,19.06
2022-07-30T09:32:02.086Z,19.14
2022-07-30T09:34:31.241Z,19.16
2022-07-30T09:37:00.689Z,19.22
2022-07-30T09:39:36.518Z,19.27
2022-07-30T09:42:16.687Z,19.33
2022-07-30T09:44:44.355Z,19.34
2022-07-30T09:47:33.208Z,19.42
2022-07-30T09:50:10.199Z,19.49
2022-07-30T09:52:44.283Z,19.50
2022-07-30T09:55:41.870Z,19.58
2022-07-30T09:58:10.332Z,19.63
2022-07-30T10:00:42.323Z,19.63
2022-07-30T10:03:33.521Z,19.76
2022-07-30T10:06:06.338Z,19.81
2022-07-30T10:08:46.621Z,19.87
2022-07-30T10:11:17.441Z,19.91
2022-07-30T10:13:54.728Z,19.94
2022-07-30T10:16:21.933Z,19.99
2022-07-30T10:18:51.288Z,20.05
2022-07-30T10:21:19.818Z,20.08
2022-07-30T10:23:50.525Z,20.11
2022-07-30T10:26:18.322Z,20.20
2022-07-30T10:28:48.054Z,20.27
2022-07-30T10:31:49.412Z,20.32
2022-07-30T10:34:02.825Z,20.40
2022-07-30T10:36:31.282Z,20.46
2022-07-30T10:39:01.075Z,20.54
2022-07-30T10:41:48.234Z,20.60
2022-07-30T10:44:23.144Z,20.64
2022-07-30T10:46:57.628Z,20.69
2022-07-30T10:49:25.905Z,20.74
2022-07-30T10:51:57.483Z,20.78
2022-07-30T10:54:33.709Z,20.78
2022-07-30T10:57:23.017Z,20.82
2022-07-30T11:00:04.083Z,20.88
2022-07-30T11:02:36.700Z,20.93
2022-07-30T11:05:27.315Z,21.00
2022-07-30T11:08:31.795Z,21.09
2022-07-30T11:11:19.590Z,21.16
2022-07-30T11:13:55.101Z,21.19
2022-07-30T11:16:45.916Z,21.29
2022-07-30T11:19:56.876Z,21.32
2022-07-30T11:22:50.876Z,21.43
2022-07-30T11:25:50.669Z,21.47
2022-07-30T11:28:37.915Z,21.53
2022-07-30T11:31:37.164Z,21.54
2022-07-30T11:34:19.508Z,21.60
2022-07-30T11:37:18.459Z,21.67
2022-07-30T11:39:55.614Z,21.68
2022-07-30T11:42:29.863Z,21.72
2022-07-30T11:45:15.449Z,21.76
2022-07-30T11:47:49.123Z,21.78
2022-07-30T11:50:19.121Z,21.80
2022-07-30T11:52:50.580Z,21.85
2022-07-30T11:55:36.359Z,21.88
2022-07-30T11:58:06.889Z,21.92
2022-07-30T12:00:42.644Z,21.96
2022-07-30T12:03:11.588Z,22.01
2022-07-30T12:05:40.223Z,22.07
2022-07-30T12:08:07.340Z,22.10
2022-07-30T12:10:36.158Z,22.13
2022-07-30T12:13:16.795Z,22.09
2022-07-30T12:15:48.608Z,22.14
2022-07-30T12:18:30.062Z,22.14
2022-07-30T12:21:01.276Z,22.20
2022-07-30T12:23:29.647Z,22.24
2022-07-30T12:25:57.560Z,22.30
2022-07-30T12:28:29.417Z,22.35
2022-07-30T12:30:58.324Z,22.35
2022-07-30T12:33:25.437Z,22.41
2022-07-30T12:35:54.887Z,22.43
2022-07-30T12:38:23.261Z,22.46
2022-07-30T12:41:10.510Z,22.53
2022-07-30T12:43:56.380Z,22.54
2022-07-30T12:46:26.893Z,22.54
2022-07-30T12:48:57.940Z,22.55
2022-07-30T12:51:27.215Z,22.58
2022-07-30T12:53:56.736Z,22.59
2022-07-30T12:56:29.265Z,22.60
2022-07-30T12:58:58.541Z,22.58
2022-07-30T13:01:46.021Z,22.59
2022-07-30T13:04:14.439Z,22.59
2022-07-30T13:06:42.453Z,22.62
2022-07-30T13:09:21.978Z,22.64
2022-07-30T13:11:51.197Z,22.64
2022-07-30T13:14:18.113Z,22.67
2022-07-30T13:16:45.628Z,22.68
2022-07-30T13:19:13.255Z,22.69
2022-07-30T13:21:49.768Z,22.72
2022-07-30T13:24:18.499Z,22.72
2022-07-30T13:26:46.053Z,22.78
2022-07-30T13:29:13.681Z,22.81
2022-07-30T13:31:43.113Z,22.81
2022-07-30T13:34:11.989Z,22.84
2022-07-30T13:36:39.321Z,22.83
2022-07-30T13:39:06.431Z,22.84
2022-07-30T13:41:34.399Z,22.85
2022-07-30T13:44:01.355Z,22.85
2022-07-30T13:46:28.343Z,22.84
2022-07-30T13:48:55.448Z,22.84
2022-07-30T13:51:22.438Z,22.83
2022-07-30T13:53:49.419Z,22.84
2022-07-30T13:56:16.899Z,22.85
2022-07-30T13:58:47.923Z,22.85
2022-07-30T14:01:17.731Z,22.82
2022-07-30T14:03:50.602Z,22.86
2022-07-30T14:06:19.262Z,22.84
2022-07-30T14:08:46.570Z,22.83
2022-07-30T14:11:13.881Z,22.82
2022-07-30T14:13:41.013Z,22.84
2022-07-30T14:16:22.975Z,22.85
2022-07-30T14:18:57.407Z,22.87
2022-07-30T14:21:24.940Z,22.81
2022-07-30T14:23:51.914Z,22.83
2022-07-30T14:26:19.235Z,22.81
2022-07-30T14:28:46.261Z,22.81
2022-07-30T14:31:13.258Z,22.84
2022-07-30T14:33:40.237Z,22.83
2022-07-30T14:36:07.267Z,22.82
2022-07-30T14:38:34.265Z,22.80
2022-07-30T14:41:01.217Z,22.82
2022-07-30T14:43:28.089Z,22.83
2022-07-30T14:45:55.066Z,22.85
2022-07-30T14:48:21.909Z,22.88
2022-07-30T14:51:12.881Z,22.88
2022-07-30T14:53:35.881Z,22.90
2022-07-30T14:56:03.105Z,22.94
2022-07-30T14:58:29.968Z,22.95
2022-07-30T15:00:57.118Z,22.98
2022-07-30T15:03:25.872Z,22.97
2022-07-30T15:05:53.043Z,22.95
2022-07-30T15:08:20.392Z,23.00
2022-07-30T15:10:47.543Z,23.02
2022-07-30T15:13:15.505Z,22.99
2022-07-30T15:15:43.375Z,23.01
2022-07-30T15:18:13.916Z,23.02
2022-07-30T15:20:40.928Z,22.99
2022-07-30T15:23:13.086Z,23.03
2022-07-30T15:25:41.522Z,23.04
2022-07-30T15:28:08.721Z,23.04
2022-07-30T15:30:36.430Z,23.08
2022-07-30T15:33:03.363Z,23.09
2022-07-30T15:35:30.275Z,23.06
2022-07-30T15:37:59.403Z,23.04
2022-07-30T15:40:26.421Z,23.04
2022-07-30T15:42:53.632Z,23.06
2022-07-30T15:45:20.555Z,23.06
2022-07-30T15:47:47.562Z,23.07
2022-07-30T15:50:16.704Z,23.07
2022-07-30T15:52:44.575Z,23.10
2022-07-30T15:55:12.349Z,23.11
2022-07-30T15:57:40.497Z,23.11
2022-07-30T16:00:08.817Z,23.14
2022-07-30T16:02:36.911Z,23.13
2022-07-30T16:05:13.222Z,23.15
2022-07-30T16:07:41.085Z,23.15
2022-07-30T16:10:08.441Z,23.18
2022-07-30T16:12:35.482Z,23.15
2022-07-30T16:15:02.468Z,23.18
2022-07-30T16:17:29.423Z,23.17
2022-07-30T16:19:56.374Z,23.18
2022-07-30T16:22:24.213Z,23.12
2022-07-30T16:24:51.761Z,23.17
2022-07-30T16:27:18.820Z,23.17
2022-07-30T16:29:45.716Z,23.16
2022-07-30T16:32:12.789Z,23.13
2022-07-30T16:34:39.757Z,23.14
2022-07-30T16:37:06.698Z,23.13
2022-07-30T16:39:33.577Z,23.09
2022-07-30T16:42:01.092Z,23.11
2022-07-30T16:44:31.603Z,23.12
2022-07-30T16:46:58.683Z,23.12
2022-07-30T16:49:26.295Z,23.11
2022-07-30T16:51:54.159Z,23.07
2022-07-30T16:54:21.517Z,23.08
2022-07-30T16:56:52.690Z,23.07
2022-07-30T16:59:20.515Z,23.08
2022-07-30T17:01:48.479Z,23.08
2022-07-30T17:04:15.695Z,23.07
2022-07-30T17:06:44.384Z,23.06
2022-07-30T17:09:13.192Z,23.07
2022-07-30T17:11:51.883Z,23.03
2022-07-30T17:14:21.337Z,23.02
2022-07-30T17:16:48.331Z,22.97
2022-07-30T17:19:15.214Z,22.97
2022-07-30T17:21:42.169Z,22.95
2022-07-30T17:24:13.561Z,22.93
2022-07-30T17:26:43.461Z,22.91
2022-07-30T17:29:14.705Z,22.90
2022-07-30T17:31:45.957Z,22.88
2022-07-30T17:34:15.187Z,22.86
2022-07-30T17:36:47.023Z,22.84
2022-07-30T17:40:24.701Z,22.83
2022-07-30T17:42:06.330Z,22.79
2022-07-30T17:44:35.332Z,22.81
2022-07-30T17:47:02.266Z,22.78
2022-07-30T17:49:30.244Z,22.79
2022-07-30T17:51:57.592Z,22.74
2022-07-30T17:54:24.689Z,22.74
2022-07-30T17:56:51.722Z,22.71
2022-07-30T17:59:18.635Z,22.71
2022-07-30T18:01:45.762Z,22.71
2022-07-30T18:04:12.597Z,22.69
2022-07-30T18:06:39.645Z,22.66
2022-07-30T18:09:06.820Z,22.63
2022-07-30T18:11:33.725Z,22.59
2022-07-30T18:14:00.599Z,22.57
2022-07-30T18:16:27.494Z,22.56
2022-07-30T18:18:54.588Z,22.55
2022-07-30T18:21:21.478Z,22.50
2022-07-30T18:23:48.439Z,22.45
2022-07-30T18:26:15.511Z,22.43
2022-07-30T18:28:42.480Z,22.43
2022-07-30T18:31:09.649Z,22.42
2022-07-30T18:33:36.606Z,22.37
2022-07-30T18:36:03.818Z,22.38
2022-07-30T18:38:30.679Z,22.33
2022-07-30T18:40:57.814Z,22.31
2022-07-30T18:43:28.362Z,22.28
2022-07-30T18:45:56.657Z,22.25
2022-07-30T18:48:24.639Z,22.21
2022-07-30T18:50:53.014Z,22.18
2022-07-30T18:53:19.910Z,22.12
2022-07-30T18:55:47.065Z,22.10
2022-07-30T18:58:14.003Z,22.06
2022-07-30T19:00:44.078Z,22.01
2022-07-30T19:03:16.380Z,22.01
2022-07-30T19:05:45.221Z,21.96
2022-07-30T19:08:12.125Z,21.91
2022-07-30T19:10:40.017Z,21.84
2022-07-30T19:13:07.361Z,21.81
2022-07-30T19:15:34.350Z,21.76
2022-07-30T19:18:01.559Z,21.71
2022-07-30T19:20:31.547Z,21.69
2022-07-30T19:23:06.957Z,21.64
2022-07-30T19:25:36.164Z,21.54
2022-07-30T19:28:04.573Z,21.55
2022-07-30T19:30:32.558Z,21.47
2022-07-30T19:33:09.166Z,21.47
2022-07-30T19:35:41.824Z,21.38
2022-07-30T19:38:09.904Z,21.33
2022-07-30T19:40:39.601Z,21.31
2022-07-30T19:43:10.126Z,21.26
2022-07-30T19:45:47.291Z,21.21
2022-07-30T19:48:28.658Z,21.16
2022-07-30T19:50:58.253Z,21.10
2022-07-30T19:53:26.645Z,21.07
2022-07-30T19:56:01.343Z,21.05
2022-07-30T19:58:28.383Z,21.01
2022-07-30T20:00:55.385Z,20.97
2022-07-30T20:03:25.987Z,20.92
2022-07-30T20:06:00.178Z,20.89
2022-07-30T20:08:28.474Z,20.85
2022-07-30T20:10:57.803Z,20.81
2022-07-30T20:13:45.327Z,20.77
2022-07-30T20:16:14.910Z,20.73
2022-07-30T20:18:42.940Z,20.70
2022-07-30T20:21:15.067Z,20.65
2022-07-30T20:23:43.201Z,20.63
2022-07-30T20:26:13.897Z,20.58
2022-07-30T20:28:52.429Z,20.54
2022-07-30T20:31:20.011Z,20.53
2022-07-30T20:33:49.510Z,20.48
2022-07-30T20:36:18.237Z,20.44
2022-07-30T20:38:47.042Z,20.44
2022-07-30T20:41:15.035Z,20.42
2022-07-30T20:46:29.290Z,20.34
2022-07-30T20:48:56.360Z,20.31
2022-07-30T20:51:33.780Z,20.28
2022-07-30T20:54:01.200Z,20.26
2022-07-30T20:56:28.733Z,20.23
2022-07-30T20:58:56.974Z,20.19
2022-07-30T21:01:23.979Z,20.19
2022-07-30T21:03:51.018Z,20.14
2022-07-30T21:06:19.392Z,20.08
2022-07-30T21:08:46.344Z,20.08
2022-07-30T21:11:13.377Z,20.03
2022-07-30T21:13:41.953Z,19.97
2022-07-30T21:16:15.923Z,19.95
2022-07-30T21:18:50.086Z,19.90
2022-07-30T21:21:30.843Z,19.87
2022-07-30T21:24:06.424Z,19.83
2022-07-30T21:26:42.447Z,19.81
2022-07-30T21:29:10.003Z,19.78
2022-07-30T21:31:59.084Z,19.72
2022-07-30T21:34:26.139Z,19.66
2022-07-30T21:36:54.422Z,19.68
2022-07-30T21:39:28.927Z,19.60
2022-07-30T21:41:56.956Z,19.59
2022-07-30T21:44:24.342Z,19.55
2022-07-30T21:46:52.388Z,19.51
2022-07-30T21:49:20.592Z,19.49
2022-07-30T21:51:48.038Z,19.45
2022-07-30T21:54:28.614Z,19.40
2022-07-30T21:56:58.305Z,19.39
2022-07-30T21:59:27.605Z,19.38
2022-07-30T22:01:55.643Z,19.37
2022-07-30T22:04:22.833Z,19.34
2022-07-30T22:06:51.432Z,19.29
2022-07-30T22:09:33.426Z,19.30
2022-07-30T22:12:09.196Z,19.28
2022-07-30T22:14:39.426Z,19.26
2022-07-30T22:17:22.345Z,19.20
2022-07-30T22:19:50.232Z,19.18
2022-07-30T22:22:27.680Z,19.19
2022-07-30T22:24:57.306Z,19.16
2022-07-30T22:27:27.015Z,19.15
2022-07-30T22:29:55.832Z,19.13
2022-07-30T22:32:23.995Z,19.09
2022-07-30T22:34:51.719Z,19.06
2022-07-30T22:37:21.537Z,19.01
2022-07-30T22:39:51.435Z,19.01
2022-07-30T22:42:24.261Z,18.98
2022-07-30T22:44:52.638Z,18.97
2022-07-30T22:47:21.478Z,18.97
2022-07-30T22:50:07.999Z,18.93
2022-07-30T22:52:39.432Z,18.90
2022-07-30T22:55:09.077Z,18.90
2022-07-30T22:57:37.755Z,18.87
2022-07-30T23:00:07.306Z,18.85
2022-07-30T23:02:39.737Z,18.82
2022-07-30T23:05:08.471Z,18.81
2022-07-30T23:07:39.686Z,18.79
2022-07-30T23:10:17.206Z,18.77
2022-07-30T23:12:18.423Z,20.36
2022-07-30T23:12:48.750Z,18.74
2022-07-30T23:15:15.924Z,18.73
2022-07-30T23:17:43.708Z,18.72
2022-07-30T23:20:13.930Z,18.70
2022-07-30T23:22:41.183Z,18.70
2022-07-30T23:25:12.959Z,18.68
2022-07-30T23:27:41.136Z,18.65
2022-07-30T23:30:09.583Z,18.63
2022-07-30T23:32:36.960Z,18.60
2022-07-30T23:35:04.990Z,18.60
2022-07-30T23:37:48.620Z,18.57
2022-07-30T23:40:19.879Z,18.55
2022-07-30T23:42:47.827Z,18.55
2022-07-30T23:45:14.873Z,18.50
2022-07-30T23:48:01.688Z,18.49
2022-07-30T23:50:30.061Z,18.47
2022-07-30T23:52:57.072Z,18.41
2022-07-30T23:55:24.039Z,18.38
2022-07-30T23:57:51.159Z,18.36
